sensor_id;sensor_type;location;lat;lon;timestamp;P1;durP1;ratioP1;P2;durP2;ratioP2
21012;SDS011;10664;53.582;9.712;2023-02-07T00:00:07;6.37;;;5.73;;
21012;SDS011;10664;53.582;9.712;2023-02-07T00:02:33;6.63;;;5.93;;
21012;SDS011;10664;53.582;9.712;2023-02-07T00:04:59;5.93;;;5.33;;
21012;SDS011;10664;53.582;9.712;2023-02-07T00:07:26;6.27;;;5.67;;
21012;SDS011;10664;53.582;9.712;2023-02-07T00:09:52;6.63;;;5.30;;
21012;SDS011;10664;53.582;9.712;2023-02-07T00:12:18;6.47;;;5.53;;
21012;SDS011;10664;53.582;9.712;2023-02-07T00:14:44;5.97;;;5.47;;
21012;SDS011;10664;53.582;9.712;2023-02-07T00:17:10;6.60;;;5.53;;
21012;SDS011;10664;53.582;9.712;2023-02-07T00:19:36;6.03;;;5.37;;
21012;SDS011;10664;53.582;9.712;2023-02-07T00:22:02;5.90;;;5.20;;
21012;SDS011;10664;53.582;9.712;2023-02-07T00:24:28;7.63;;;5.60;;
21012;SDS011;10664;53.582;9.712;2023-02-07T00:26:54;5.80;;;5.20;;
21012;SDS011;10664;53.582;9.712;2023-02-07T00:29:20;5.50;;;5.00;;
21012;SDS011;10664;53.582;9.712;2023-02-07T00:31:46;6.23;;;5.60;;
21012;SDS011;10664;53.582;9.712;2023-02-07T00:34:13;6.23;;;5.47;;
21012;SDS011;10664;53.582;9.712;2023-02-07T00:36:39;6.73;;;5.63;;
21012;SDS011;10664;53.582;9.712;2023-02-07T00:39:13;6.80;;;5.30;;
21012;SDS011;10664;53.582;9.712;2023-02-07T00:41:40;5.97;;;5.47;;
21012;SDS011;10664;53.582;9.712;2023-02-07T00:44:06;6.13;;;5.20;;
21012;SDS011;10664;53.582;9.712;2023-02-07T00:46:33;6.03;;;5.13;;
21012;SDS011;10664;53.582;9.712;2023-02-07T00:48:59;6.43;;;5.27;;
21012;SDS011;10664;53.582;9.712;2023-02-07T00:51:25;5.30;;;4.80;;
21012;SDS011;10664;53.582;9.712;2023-02-07T00:53:52;5.60;;;4.87;;
21012;SDS011;10664;53.582;9.712;2023-02-07T00:56:18;5.67;;;5.10;;
21012;SDS011;10664;53.582;9.712;2023-02-07T00:58:45;4.83;;;4.43;;
21012;SDS011;10664;53.582;9.712;2023-02-07T01:01:11;6.00;;;4.93;;
21012;SDS011;10664;53.582;9.712;2023-02-07T01:03:37;5.27;;;4.77;;
21012;SDS011;10664;53.582;9.712;2023-02-07T01:06:03;5.67;;;4.60;;
21012;SDS011;10664;53.582;9.712;2023-02-07T01:08:29;5.00;;;4.53;;
21012;SDS011;10664;53.582;9.712;2023-02-07T01:10:55;4.87;;;4.30;;
21012;SDS011;10664;53.582;9.712;2023-02-07T01:13:21;5.07;;;4.43;;
21012;SDS011;10664;53.582;9.712;2023-02-07T01:15:48;5.17;;;4.33;;
21012;SDS011;10664;53.582;9.712;2023-02-07T01:18:14;6.63;;;4.47;;
21012;SDS011;10664;53.582;9.712;2023-02-07T01:20:40;5.10;;;4.60;;
21012;SDS011;10664;53.582;9.712;2023-02-07T01:23:06;5.40;;;4.90;;
21012;SDS011;10664;53.582;9.712;2023-02-07T01:25:32;4.67;;;4.27;;
21012;SDS011;10664;53.582;9.712;2023-02-07T01:27:58;4.37;;;3.97;;
21012;SDS011;10664;53.582;9.712;2023-02-07T01:30:24;4.57;;;4.10;;
21012;SDS011;10664;53.582;9.712;2023-02-07T01:32:50;5.50;;;4.27;;
21012;SDS011;10664;53.582;9.712;2023-02-07T01:35:16;4.57;;;4.00;;
21012;SDS011;10664;53.582;9.712;2023-02-07T01:37:42;5.33;;;4.53;;
21012;SDS011;10664;53.582;9.712;2023-02-07T01:40:09;4.90;;;4.20;;
21012;SDS011;10664;53.582;9.712;2023-02-07T01:42:35;4.83;;;4.33;;
21012;SDS011;10664;53.582;9.712;2023-02-07T01:45:05;5.37;;;4.10;;
21012;SDS011;10664;53.582;9.712;2023-02-07T01:47:35;4.93;;;4.30;;
21012;SDS011;10664;53.582;9.712;2023-02-07T01:50:01;4.80;;;4.20;;
21012;SDS011;10664;53.582;9.712;2023-02-07T01:52:31;4.50;;;4.07;;
21012;SDS011;10664;53.582;9.712;2023-02-07T01:55:00;4.73;;;4.20;;
21012;SDS011;10664;53.582;9.712;2023-02-07T01:57:27;4.97;;;4.47;;
21012;SDS011;10664;53.582;9.712;2023-02-07T01:59:54;4.83;;;4.00;;
21012;SDS011;10664;53.582;9.712;2023-02-07T02:02:21;4.30;;;3.90;;
21012;SDS011;10664;53.582;9.712;2023-02-07T02:04:49;4.20;;;3.80;;
21012;SDS011;10664;53.582;9.712;2023-02-07T02:07:16;4.60;;;4.20;;
21012;SDS011;10664;53.582;9.712;2023-02-07T02:09:42;5.03;;;4.53;;
21012;SDS011;10664;53.582;9.712;2023-02-07T02:12:26;4.93;;;4.40;;
21012;SDS011;10664;53.582;9.712;2023-02-07T02:15:06;4.57;;;4.17;;
21012;SDS011;10664;53.582;9.712;2023-02-07T02:22:53;4.97;;;4.47;;
21012;SDS011;10664;53.582;9.712;2023-02-07T02:28:21;4.73;;;4.20;;
21012;SDS011;10664;53.582;9.712;2023-02-07T02:30:56;4.50;;;4.10;;
21012;SDS011;10664;53.582;9.712;2023-02-07T02:33:30;4.73;;;4.17;;
21012;SDS011;10664;53.582;9.712;2023-02-07T02:36:05;4.80;;;4.30;;
21012;SDS011;10664;53.582;9.712;2023-02-07T02:41:02;5.63;;;5.03;;
21012;SDS011;10664;53.582;9.712;2023-02-07T02:43:34;5.17;;;4.67;;
21012;SDS011;10664;53.582;9.712;2023-02-07T02:46:05;4.57;;;4.10;;
21012;SDS011;10664;53.582;9.712;2023-02-07T02:48:33;5.03;;;4.37;;
21012;SDS011;10664;53.582;9.712;2023-02-07T02:50:59;5.00;;;4.23;;
21012;SDS011;10664;53.582;9.712;2023-02-07T02:53:26;4.47;;;3.77;;
21012;SDS011;10664;53.582;9.712;2023-02-07T02:58:35;5.60;;;4.80;;
21012;SDS011;10664;53.582;9.712;2023-02-07T03:01:15;4.93;;;4.43;;
21012;SDS011;10664;53.582;9.712;2023-02-07T03:03:51;5.30;;;4.17;;
21012;SDS011;10664;53.582;9.712;2023-02-07T03:11:59;5.17;;;4.37;;
21012;SDS011;10664;53.582;9.712;2023-02-07T03:14:33;4.73;;;4.23;;
21012;SDS011;10664;53.582;9.712;2023-02-07T03:17:12;6.20;;;4.67;;
21012;SDS011;10664;53.582;9.712;2023-02-07T03:19:47;5.40;;;4.80;;
21012;SDS011;10664;53.582;9.712;2023-02-07T03:22:16;5.07;;;4.50;;
21012;SDS011;10664;53.582;9.712;2023-02-07T03:24:44;5.13;;;4.40;;
21012;SDS011;10664;53.582;9.712;2023-02-07T03:27:12;5.37;;;4.50;;
21012;SDS011;10664;53.582;9.712;2023-02-07T03:29:38;5.37;;;4.37;;
21012;SDS011;10664;53.582;9.712;2023-02-07T03:32:06;5.20;;;4.60;;
21012;SDS011;10664;53.582;9.712;2023-02-07T03:34:34;4.67;;;4.17;;
21012;SDS011;10664;53.582;9.712;2023-02-07T03:37:15;4.90;;;4.40;;
21012;SDS011;10664;53.582;9.712;2023-02-07T03:39:42;5.27;;;4.73;;
21012;SDS011;10664;53.582;9.712;2023-02-07T03:42:11;5.73;;;4.90;;
21012;SDS011;10664;53.582;9.712;2023-02-07T03:44:40;4.70;;;4.30;;
21012;SDS011;10664;53.582;9.712;2023-02-07T03:47:07;5.00;;;4.40;;
21012;SDS011;10664;53.582;9.712;2023-02-07T03:49:33;5.07;;;4.30;;
21012;SDS011;10664;53.582;9.712;2023-02-07T03:51:59;6.43;;;4.50;;
21012;SDS011;10664;53.582;9.712;2023-02-07T03:54:25;4.87;;;4.37;;
21012;SDS011;10664;53.582;9.712;2023-02-07T03:56:51;6.23;;;4.80;;
21012;SDS011;10664;53.582;9.712;2023-02-07T03:59:17;6.50;;;5.37;;
21012;SDS011;10664;53.582;9.712;2023-02-07T04:01:43;5.33;;;4.83;;
21012;SDS011;10664;53.582;9.712;2023-02-07T04:04:09;5.67;;;4.40;;
21012;SDS011;10664;53.582;9.712;2023-02-07T04:06:35;5.87;;;4.80;;
21012;SDS011;10664;53.582;9.712;2023-02-07T04:09:01;5.40;;;4.90;;
21012;SDS011;10664;53.582;9.712;2023-02-07T04:11:27;5.53;;;4.90;;
21012;SDS011;10664;53.582;9.712;2023-02-07T04:13:53;6.13;;;5.53;;
21012;SDS011;10664;53.582;9.712;2023-02-07T04:16:19;5.50;;;5.00;;
21012;SDS011;10664;53.582;9.712;2023-02-07T04:18:45;5.93;;;5.23;;
21012;SDS011;10664;53.582;9.712;2023-02-07T04:21:11;6.13;;;5.50;;
21012;SDS011;10664;53.582;9.712;2023-02-07T04:23:37;6.30;;;5.70;;
21012;SDS011;10664;53.582;9.712;2023-02-07T04:26:03;6.23;;;5.63;;
21012;SDS011;10664;53.582;9.712;2023-02-07T04:28:29;6.10;;;5.50;;
21012;SDS011;10664;53.582;9.712;2023-02-07T04:30:55;6.27;;;5.67;;
21012;SDS011;10664;53.582;9.712;2023-02-07T04:33:21;6.33;;;5.67;;
21012;SDS011;10664;53.582;9.712;2023-02-07T04:35:57;7.27;;;6.07;;
21012;SDS011;10664;53.582;9.712;2023-02-07T04:38:24;6.57;;;5.67;;
21012;SDS011;10664;53.582;9.712;2023-02-07T04:40:50;6.53;;;5.93;;
21012;SDS011;10664;53.582;9.712;2023-02-07T04:43:16;6.63;;;5.73;;
21012;SDS011;10664;53.582;9.712;2023-02-07T04:45:44;6.33;;;5.37;;
21012;SDS011;10664;53.582;9.712;2023-02-07T04:48:10;7.00;;;6.00;;
21012;SDS011;10664;53.582;9.712;2023-02-07T04:50:36;6.43;;;5.70;;
21012;SDS011;10664;53.582;9.712;2023-02-07T04:53:02;6.53;;;5.93;;
21012;SDS011;10664;53.582;9.712;2023-02-07T04:55:27;6.30;;;5.70;;
21012;SDS011;10664;53.582;9.712;2023-02-07T04:57:53;6.73;;;6.03;;
21012;SDS011;10664;53.582;9.712;2023-02-07T05:00:19;6.33;;;5.70;;
21012;SDS011;10664;53.582;9.712;2023-02-07T05:02:45;7.10;;;6.40;;
21012;SDS011;10664;53.582;9.712;2023-02-07T05:05:11;6.93;;;6.07;;
21012;SDS011;10664;53.582;9.712;2023-02-07T05:07:37;6.27;;;5.53;;
21012;SDS011;10664;53.582;9.712;2023-02-07T05:10:03;7.30;;;6.10;;
21012;SDS011;10664;53.582;9.712;2023-02-07T05:12:29;6.37;;;5.40;;
21012;SDS011;10664;53.582;9.712;2023-02-07T05:14:55;7.27;;;5.80;;
21012;SDS011;10664;53.582;9.712;2023-02-07T05:17:21;6.93;;;6.23;;
21012;SDS011;10664;53.582;9.712;2023-02-07T05:19:47;7.07;;;5.80;;
21012;SDS011;10664;53.582;9.712;2023-02-07T05:22:13;7.67;;;6.73;;
21012;SDS011;10664;53.582;9.712;2023-02-07T05:24:39;7.33;;;6.57;;
21012;SDS011;10664;53.582;9.712;2023-02-07T05:27:05;7.20;;;6.50;;
21012;SDS011;10664;53.582;9.712;2023-02-07T05:29:31;7.20;;;6.20;;
21012;SDS011;10664;53.582;9.712;2023-02-07T05:31:57;7.47;;;6.13;;
21012;SDS011;10664;53.582;9.712;2023-02-07T05:34:42;6.90;;;5.73;;
21012;SDS011;10664;53.582;9.712;2023-02-07T05:37:08;7.30;;;6.53;;
21012;SDS011;10664;53.582;9.712;2023-02-07T05:39:34;7.10;;;6.30;;
21012;SDS011;10664;53.582;9.712;2023-02-07T05:41:59;6.90;;;6.07;;
21012;SDS011;10664;53.582;9.712;2023-02-07T05:44:25;6.83;;;6.13;;
21012;SDS011;10664;53.582;9.712;2023-02-07T05:46:51;7.00;;;5.50;;
21012;SDS011;10664;53.582;9.712;2023-02-07T05:49:17;8.17;;;6.60;;
21012;SDS011;10664;53.582;9.712;2023-02-07T05:51:43;7.63;;;6.03;;
21012;SDS011;10664;53.582;9.712;2023-02-07T05:54:09;7.87;;;6.33;;
21012;SDS011;10664;53.582;9.712;2023-02-07T05:56:35;8.33;;;6.83;;
21012;SDS011;10664;53.582;9.712;2023-02-07T05:59:01;9.13;;;7.20;;
21012;SDS011;10664;53.582;9.712;2023-02-07T06:01:27;7.70;;;6.77;;
21012;SDS011;10664;53.582;9.712;2023-02-07T06:03:53;7.83;;;6.70;;
21012;SDS011;10664;53.582;9.712;2023-02-07T06:06:19;8.13;;;6.60;;
21012;SDS011;10664;53.582;9.712;2023-02-07T06:08:45;9.23;;;7.27;;
21012;SDS011;10664;53.582;9.712;2023-02-07T06:11:11;7.70;;;6.90;;
21012;SDS011;10664;53.582;9.712;2023-02-07T06:13:37;8.00;;;7.03;;
21012;SDS011;10664;53.582;9.712;2023-02-07T06:16:03;8.20;;;6.87;;
21012;SDS011;10664;53.582;9.712;2023-02-07T06:18:29;8.20;;;6.90;;
21012;SDS011;10664;53.582;9.712;2023-02-07T06:20:55;8.30;;;6.80;;
21012;SDS011;10664;53.582;9.712;2023-02-07T06:23:21;8.97;;;6.90;;
21012;SDS011;10664;53.582;9.712;2023-02-07T06:25:47;9.27;;;7.17;;
21012;SDS011;10664;53.582;9.712;2023-02-07T06:28:13;8.20;;;6.90;;
21012;SDS011;10664;53.582;9.712;2023-02-07T06:30:39;8.63;;;7.03;;
21012;SDS011;10664;53.582;9.712;2023-02-07T06:33:05;7.63;;;6.83;;
21012;SDS011;10664;53.582;9.712;2023-02-07T06:35:31;8.50;;;7.30;;
21012;SDS011;10664;53.582;9.712;2023-02-07T06:37:57;8.77;;;7.37;;
21012;SDS011;10664;53.582;9.712;2023-02-07T06:40:23;7.73;;;6.93;;
21012;SDS011;10664;53.582;9.712;2023-02-07T06:42:49;8.93;;;7.60;;
21012;SDS011;10664;53.582;9.712;2023-02-07T06:45:14;9.13;;;7.40;;
21012;SDS011;10664;53.582;9.712;2023-02-07T06:47:40;8.03;;;7.10;;
21012;SDS011;10664;53.582;9.712;2023-02-07T06:50:07;8.40;;;7.50;;
21012;SDS011;10664;53.582;9.712;2023-02-07T06:52:33;9.93;;;7.37;;
21012;SDS011;10664;53.582;9.712;2023-02-07T06:54:58;9.93;;;8.17;;
21012;SDS011;10664;53.582;9.712;2023-02-07T06:57:24;8.27;;;7.17;;
21012;SDS011;10664;53.582;9.712;2023-02-07T06:59:50;8.37;;;7.20;;
21012;SDS011;10664;53.582;9.712;2023-02-07T07:02:16;8.80;;;7.87;;
21012;SDS011;10664;53.582;9.712;2023-02-07T07:04:43;10.43;;;8.47;;
21012;SDS011;10664;53.582;9.712;2023-02-07T07:07:09;9.90;;;8.60;;
21012;SDS011;10664;53.582;9.712;2023-02-07T07:09:35;10.87;;;8.93;;
21012;SDS011;10664;53.582;9.712;2023-02-07T07:12:01;11.77;;;8.40;;
21012;SDS011;10664;53.582;9.712;2023-02-07T07:14:28;11.10;;;9.00;;
21012;SDS011;10664;53.582;9.712;2023-02-07T07:16:54;10.97;;;8.90;;
21012;SDS011;10664;53.582;9.712;2023-02-07T07:19:20;10.77;;;8.97;;
21012;SDS011;10664;53.582;9.712;2023-02-07T07:21:46;10.40;;;8.60;;
21012;SDS011;10664;53.582;9.712;2023-02-07T07:24:12;11.27;;;9.40;;
21012;SDS011;10664;53.582;9.712;2023-02-07T07:26:38;11.33;;;9.50;;
21012;SDS011;10664;53.582;9.712;2023-02-07T07:29:04;10.13;;;8.67;;
21012;SDS011;10664;53.582;9.712;2023-02-07T07:31:32;11.13;;;9.83;;
21012;SDS011;10664;53.582;9.712;2023-02-07T07:33:58;10.90;;;9.00;;
21012;SDS011;10664;53.582;9.712;2023-02-07T07:36:24;11.50;;;10.10;;
21012;SDS011;10664;53.582;9.712;2023-02-07T07:38:50;12.43;;;10.10;;
21012;SDS011;10664;53.582;9.712;2023-02-07T07:41:15;10.27;;;9.00;;
21012;SDS011;10664;53.582;9.712;2023-02-07T07:43:42;11.23;;;9.27;;
21012;SDS011;10664;53.582;9.712;2023-02-07T07:46:07;11.00;;;8.83;;
21012;SDS011;10664;53.582;9.712;2023-02-07T07:48:33;9.93;;;8.27;;
21012;SDS011;10664;53.582;9.712;2023-02-07T07:51:00;10.40;;;9.30;;
21012;SDS011;10664;53.582;9.712;2023-02-07T07:53:26;12.57;;;9.30;;
21012;SDS011;10664;53.582;9.712;2023-02-07T07:55:53;11.70;;;9.53;;
21012;SDS011;10664;53.582;9.712;2023-02-07T07:58:20;12.83;;;10.20;;
21012;SDS011;10664;53.582;9.712;2023-02-07T08:00:46;12.73;;;10.77;;
21012;SDS011;10664;53.582;9.712;2023-02-07T08:03:13;11.77;;;9.33;;
21012;SDS011;10664;53.582;9.712;2023-02-07T08:05:39;13.03;;;9.93;;
21012;SDS011;10664;53.582;9.712;2023-02-07T08:08:05;13.03;;;9.60;;
21012;SDS011;10664;53.582;9.712;2023-02-07T08:10:31;11.77;;;9.43;;
21012;SDS011;10664;53.582;9.712;2023-02-07T08:12:57;10.73;;;9.23;;
21012;SDS011;10664;53.582;9.712;2023-02-07T08:15:24;11.37;;;9.37;;
21012;SDS011;10664;53.582;9.712;2023-02-07T08:17:50;11.67;;;10.47;;
21012;SDS011;10664;53.582;9.712;2023-02-07T08:20:16;11.30;;;9.50;;
21012;SDS011;10664;53.582;9.712;2023-02-07T08:22:42;10.37;;;8.77;;
21012;SDS011;10664;53.582;9.712;2023-02-07T08:25:08;11.30;;;9.67;;
21012;SDS011;10664;53.582;9.712;2023-02-07T08:27:34;10.80;;;9.37;;
21012;SDS011;10664;53.582;9.712;2023-02-07T08:30:00;10.77;;;9.17;;
21012;SDS011;10664;53.582;9.712;2023-02-07T08:32:26;11.27;;;9.20;;
21012;SDS011;10664;53.582;9.712;2023-02-07T08:34:53;11.03;;;9.27;;
21012;SDS011;10664;53.582;9.712;2023-02-07T08:37:19;11.53;;;9.60;;
21012;SDS011;10664;53.582;9.712;2023-02-07T08:39:46;11.27;;;9.53;;
21012;SDS011;10664;53.582;9.712;2023-02-07T08:42:16;11.30;;;9.53;;
21012;SDS011;10664;53.582;9.712;2023-02-07T08:44:42;11.30;;;9.03;;
21012;SDS011;10664;53.582;9.712;2023-02-07T08:47:08;10.70;;;9.60;;
21012;SDS011;10664;53.582;9.712;2023-02-07T08:49:34;11.93;;;9.47;;
21012;SDS011;10664;53.582;9.712;2023-02-07T08:52:00;10.63;;;9.03;;
21012;SDS011;10664;53.582;9.712;2023-02-07T08:54:26;11.00;;;9.30;;
21012;SDS011;10664;53.582;9.712;2023-02-07T08:56:52;12.03;;;9.70;;
21012;SDS011;10664;53.582;9.712;2023-02-07T08:59:18;11.73;;;10.07;;
21012;SDS011;10664;53.582;9.712;2023-02-07T09:01:44;10.80;;;9.27;;
21012;SDS011;10664;53.582;9.712;2023-02-07T09:04:10;12.10;;;9.70;;
21012;SDS011;10664;53.582;9.712;2023-02-07T09:06:36;10.77;;;9.37;;
21012;SDS011;10664;53.582;9.712;2023-02-07T09:09:02;12.53;;;10.10;;
21012;SDS011;10664;53.582;9.712;2023-02-07T09:11:28;11.17;;;9.07;;
21012;SDS011;10664;53.582;9.712;2023-02-07T09:13:54;11.60;;;9.73;;
21012;SDS011;10664;53.582;9.712;2023-02-07T09:16:20;12.43;;;9.70;;
21012;SDS011;10664;53.582;9.712;2023-02-07T09:18:47;11.07;;;9.67;;
21012;SDS011;10664;53.582;9.712;2023-02-07T09:21:13;12.20;;;10.33;;
21012;SDS011;10664;53.582;9.712;2023-02-07T09:23:39;9.83;;;8.43;;
21012;SDS011;10664;53.582;9.712;2023-02-07T09:26:06;12.63;;;10.37;;
21012;SDS011;10664;53.582;9.712;2023-02-07T09:28:32;12.53;;;9.93;;
21012;SDS011;10664;53.582;9.712;2023-02-07T09:30:59;10.70;;;9.10;;
21012;SDS011;10664;53.582;9.712;2023-02-07T09:33:31;10.63;;;8.80;;
21012;SDS011;10664;53.582;9.712;2023-02-07T09:35:57;11.27;;;9.17;;
21012;SDS011;10664;53.582;9.712;2023-02-07T09:38:23;11.33;;;9.87;;
21012;SDS011;10664;53.582;9.712;2023-02-07T09:40:52;11.57;;;9.33;;
21012;SDS011;10664;53.582;9.712;2023-02-07T09:43:36;11.30;;;9.17;;
21012;SDS011;10664;53.582;9.712;2023-02-07T09:46:11;12.37;;;10.50;;
21012;SDS011;10664;53.582;9.712;2023-02-07T09:51:07;11.80;;;8.97;;
21012;SDS011;10664;53.582;9.712;2023-02-07T09:53:39;12.50;;;10.43;;
21012;SDS011;10664;53.582;9.712;2023-02-07T09:56:07;12.27;;;10.37;;
21012;SDS011;10664;53.582;9.712;2023-02-07T09:58:56;11.33;;;9.93;;
21012;SDS011;10664;53.582;9.712;2023-02-07T10:01:26;12.17;;;9.80;;
21012;SDS011;10664;53.582;9.712;2023-02-07T10:04:01;13.83;;;10.63;;
21012;SDS011;10664;53.582;9.712;2023-02-07T10:06:29;11.87;;;9.73;;
21012;SDS011;10664;53.582;9.712;2023-02-07T10:08:56;10.97;;;9.67;;
21012;SDS011;10664;53.582;9.712;2023-02-07T10:11:41;11.57;;;9.87;;
21012;SDS011;10664;53.582;9.712;2023-02-07T10:16:43;12.03;;;9.70;;
21012;SDS011;10664;53.582;9.712;2023-02-07T10:21:53;11.60;;;9.53;;
21012;SDS011;10664;53.582;9.712;2023-02-07T10:24:24;12.33;;;10.47;;
21012;SDS011;10664;53.582;9.712;2023-02-07T10:26:53;12.53;;;10.60;;
21012;SDS011;10664;53.582;9.712;2023-02-07T10:32:00;11.33;;;9.80;;
21012;SDS011;10664;53.582;9.712;2023-02-07T10:34:29;12.40;;;10.50;;
21012;SDS011;10664;53.582;9.712;2023-02-07T10:36:56;11.57;;;10.37;;
21012;SDS011;10664;53.582;9.712;2023-02-07T10:39:30;12.80;;;10.60;;
21012;SDS011;10664;53.582;9.712;2023-02-07T10:41:57;12.17;;;10.47;;
21012;SDS011;10664;53.582;9.712;2023-02-07T10:44:23;12.70;;;10.33;;
21012;SDS011;10664;53.582;9.712;2023-02-07T10:46:53;13.10;;;10.73;;
21012;SDS011;10664;53.582;9.712;2023-02-07T10:49:21;11.73;;;10.00;;
21012;SDS011;10664;53.582;9.712;2023-02-07T10:51:48;12.03;;;9.70;;
21012;SDS011;10664;53.582;9.712;2023-02-07T10:54:16;13.20;;;10.63;;
21012;SDS011;10664;53.582;9.712;2023-02-07T10:56:45;12.67;;;10.33;;
21012;SDS011;10664;53.582;9.712;2023-02-07T10:59:31;11.30;;;9.70;;
21012;SDS011;10664;53.582;9.712;2023-02-07T11:01:57;11.90;;;9.93;;
21012;SDS011;10664;53.582;9.712;2023-02-07T11:04:44;10.97;;;9.30;;
21012;SDS011;10664;53.582;9.712;2023-02-07T11:07:12;11.50;;;9.60;;
21012;SDS011;10664;53.582;9.712;2023-02-07T11:09:39;11.30;;;9.50;;
21012;SDS011;10664;53.582;9.712;2023-02-07T11:12:18;11.83;;;9.77;;
21012;SDS011;10664;53.582;9.712;2023-02-07T11:15:05;12.13;;;9.53;;
21012;SDS011;10664;53.582;9.712;2023-02-07T11:17:35;11.50;;;9.57;;
21012;SDS011;10664;53.582;9.712;2023-02-07T11:20:02;10.87;;;9.23;;
21012;SDS011;10664;53.582;9.712;2023-02-07T11:22:29;11.33;;;9.33;;
21012;SDS011;10664;53.582;9.712;2023-02-07T11:24:59;11.87;;;9.60;;
21012;SDS011;10664;53.582;9.712;2023-02-07T11:27:26;12.03;;;9.83;;
21012;SDS011;10664;53.582;9.712;2023-02-07T11:29:56;11.23;;;9.83;;
21012;SDS011;10664;53.582;9.712;2023-02-07T11:32:23;10.83;;;9.10;;
21012;SDS011;10664;53.582;9.712;2023-02-07T11:34:50;10.83;;;9.57;;
21012;SDS011;10664;53.582;9.712;2023-02-07T11:37:22;10.73;;;9.33;;
21012;SDS011;10664;53.582;9.712;2023-02-07T11:39:48;9.93;;;8.73;;
21012;SDS011;10664;53.582;9.712;2023-02-07T11:42:18;10.93;;;8.80;;
21012;SDS011;10664;53.582;9.712;2023-02-07T11:44:46;10.13;;;8.90;;
21012;SDS011;10664;53.582;9.712;2023-02-07T11:47:14;11.77;;;9.00;;
21012;SDS011;10664;53.582;9.712;2023-02-07T11:49:42;10.93;;;9.03;;
21012;SDS011;10664;53.582;9.712;2023-02-07T11:52:09;11.83;;;9.73;;
21012;SDS011;10664;53.582;9.712;2023-02-07T11:54:35;10.77;;;8.80;;
21012;SDS011;10664;53.582;9.712;2023-02-07T11:57:05;10.77;;;8.90;;
21012;SDS011;10664;53.582;9.712;2023-02-07T11:59:32;10.80;;;8.67;;
21012;SDS011;10664;53.582;9.712;2023-02-07T12:01:59;11.13;;;9.50;;
21012;SDS011;10664;53.582;9.712;2023-02-07T12:04:32;9.97;;;8.27;;
21012;SDS011;10664;53.582;9.712;2023-02-07T12:09:40;9.27;;;8.13;;
21012;SDS011;10664;53.582;9.712;2023-02-07T12:12:15;9.37;;;7.97;;
21012;SDS011;10664;53.582;9.712;2023-02-07T12:14:46;9.57;;;8.00;;
21012;SDS011;10664;53.582;9.712;2023-02-07T12:17:15;9.00;;;7.93;;
21012;SDS011;10664;53.582;9.712;2023-02-07T12:20:00;8.60;;;7.70;;
21012;SDS011;10664;53.582;9.712;2023-02-07T12:22:33;8.63;;;7.13;;
21012;SDS011;10664;53.582;9.712;2023-02-07T12:25:05;8.73;;;7.07;;
21012;SDS011;10664;53.582;9.712;2023-02-07T12:27:34;7.83;;;6.83;;
21012;SDS011;10664;53.582;9.712;2023-02-07T12:32:29;7.47;;;6.63;;
21012;SDS011;10664;53.582;9.712;2023-02-07T12:35:00;7.37;;;6.57;;
21012;SDS011;10664;53.582;9.712;2023-02-07T12:40:01;7.57;;;6.13;;
21012;SDS011;10664;53.582;9.712;2023-02-07T12:42:29;8.17;;;6.57;;
21012;SDS011;10664;53.582;9.712;2023-02-07T12:44:58;7.80;;;6.43;;
21012;SDS011;10664;53.582;9.712;2023-02-07T12:47:42;6.93;;;6.23;;
21012;SDS011;10664;53.582;9.712;2023-02-07T12:50:15;7.53;;;6.47;;
21012;SDS011;10664;53.582;9.712;2023-02-07T13:06:00;6.30;;;5.10;;
21012;SDS011;10664;53.582;9.712;2023-02-07T13:13:26;5.67;;;5.07;;
21012;SDS011;10664;53.582;9.712;2023-02-07T13:18:35;5.43;;;4.90;;
21012;SDS011;10664;53.582;9.712;2023-02-07T13:23:30;6.10;;;4.90;;
21012;SDS011;10664;53.582;9.712;2023-02-07T13:26:05;6.17;;;5.40;;
21012;SDS011;10664;53.582;9.712;2023-02-07T13:28:44;6.23;;;5.63;;
21012;SDS011;10664;53.582;9.712;2023-02-07T13:31:12;6.07;;;5.47;;
21012;SDS011;10664;53.582;9.712;2023-02-07T13:33:39;6.90;;;6.07;;
21012;SDS011;10664;53.582;9.712;2023-02-07T13:36:16;7.77;;;6.10;;
21012;SDS011;10664;53.582;9.712;2023-02-07T13:41:33;7.10;;;6.40;;
21012;SDS011;10664;53.582;9.712;2023-02-07T13:44:10;6.77;;;6.07;;
21012;SDS011;10664;53.582;9.712;2023-02-07T13:46:48;7.70;;;6.27;;
21012;SDS011;10664;53.582;9.712;2023-02-07T13:52:09;7.10;;;6.40;;
21012;SDS011;10664;53.582;9.712;2023-02-07T13:54:41;7.10;;;6.40;;
21012;SDS011;10664;53.582;9.712;2023-02-07T13:57:17;6.30;;;5.60;;
21012;SDS011;10664;53.582;9.712;2023-02-07T14:00:07;6.90;;;6.20;;
21012;SDS011;10664;53.582;9.712;2023-02-07T14:03:21;6.57;;;5.87;;
21012;SDS011;10664;53.582;9.712;2023-02-07T14:05:32;7.43;;;6.57;;
21012;SDS011;10664;53.582;9.712;2023-02-07T14:08:03;6.90;;;6.20;;
21012;SDS011;10664;53.582;9.712;2023-02-07T14:10:45;6.77;;;5.97;;
21012;SDS011;10664;53.582;9.712;2023-02-07T14:13:19;6.27;;;5.67;;
21012;SDS011;10664;53.582;9.712;2023-02-07T14:20:59;6.20;;;5.57;;
21012;SDS011;10664;53.582;9.712;2023-02-07T14:23:31;7.60;;;6.40;;
21012;SDS011;10664;53.582;9.712;2023-02-07T14:29:17;6.50;;;5.90;;
21012;SDS011;10664;53.582;9.712;2023-02-07T14:31:49;6.80;;;5.47;;
21012;SDS011;10664;53.582;9.712;2023-02-07T14:34:17;5.60;;;5.03;;
21012;SDS011;10664;53.582;9.712;2023-02-07T14:36:46;6.17;;;5.57;;
21012;SDS011;10664;53.582;9.712;2023-02-07T14:41:40;5.77;;;4.73;;
21012;SDS011;10664;53.582;9.712;2023-02-07T14:44:17;5.60;;;5.07;;
21012;SDS011;10664;53.582;9.712;2023-02-07T14:46:48;6.07;;;5.40;;
21012;SDS011;10664;53.582;9.712;2023-02-07T14:49:35;5.70;;;5.13;;
21012;SDS011;10664;53.582;9.712;2023-02-07T14:52:11;6.30;;;5.40;;
21012;SDS011;10664;53.582;9.712;2023-02-07T14:54:41;6.30;;;5.50;;
21012;SDS011;10664;53.582;9.712;2023-02-07T14:57:15;6.97;;;5.83;;
21012;SDS011;10664;53.582;9.712;2023-02-07T14:59:53;6.97;;;5.80;;
21012;SDS011;10664;53.582;9.712;2023-02-07T15:02:34;6.47;;;5.83;;
21012;SDS011;10664;53.582;9.712;2023-02-07T15:07:38;6.40;;;5.80;;
21012;SDS011;10664;53.582;9.712;2023-02-07T15:10:25;5.90;;;5.30;;
21012;SDS011;10664;53.582;9.712;2023-02-07T15:12:51;5.90;;;5.27;;
21012;SDS011;10664;53.582;9.712;2023-02-07T15:17:50;6.10;;;5.43;;
21012;SDS011;10664;53.582;9.712;2023-02-07T15:20:22;6.33;;;5.50;;
21012;SDS011;10664;53.582;9.712;2023-02-07T15:22:51;6.33;;;5.73;;
21012;SDS011;10664;53.582;9.712;2023-02-07T15:25:17;6.80;;;5.70;;
21012;SDS011;10664;53.582;9.712;2023-02-07T15:27:56;6.50;;;5.80;;
21012;SDS011;10664;53.582;9.712;2023-02-07T15:30:23;7.13;;;5.97;;
21012;SDS011;10664;53.582;9.712;2023-02-07T15:32:48;6.87;;;5.70;;
21012;SDS011;10664;53.582;9.712;2023-02-07T15:35:26;6.90;;;6.20;;
21012;SDS011;10664;53.582;9.712;2023-02-07T15:37:52;7.63;;;6.83;;
21012;SDS011;10664;53.582;9.712;2023-02-07T15:40:19;7.80;;;6.80;;
21012;SDS011;10664;53.582;9.712;2023-02-07T15:42:53;8.97;;;7.00;;
21012;SDS011;10664;53.582;9.712;2023-02-07T15:45:30;8.87;;;7.53;;
21012;SDS011;10664;53.582;9.712;2023-02-07T15:48:01;8.50;;;7.33;;
21012;SDS011;10664;53.582;9.712;2023-02-07T15:50:30;8.23;;;7.00;;
21012;SDS011;10664;53.582;9.712;2023-02-07T15:52:57;8.77;;;7.77;;
21012;SDS011;10664;53.582;9.712;2023-02-07T15:55:43;8.03;;;7.17;;
21012;SDS011;10664;53.582;9.712;2023-02-07T15:58:43;8.87;;;7.97;;
21012;SDS011;10664;53.582;9.712;2023-02-07T16:01:03;9.73;;;8.17;;
21012;SDS011;10664;53.582;9.712;2023-02-07T16:03:53;9.37;;;7.87;;
21012;SDS011;10664;53.582;9.712;2023-02-07T16:06:26;10.50;;;9.00;;
21012;SDS011;10664;53.582;9.712;2023-02-07T16:08:53;10.43;;;8.87;;
21012;SDS011;10664;53.582;9.712;2023-02-07T16:16:37;10.33;;;8.70;;
21012;SDS011;10664;53.582;9.712;2023-02-07T16:21:30;12.60;;;9.07;;